createdAt,value
2022-09-12T00:01:50.033Z,19.6
2022-09-12T00:04:23.228Z,19.6
2022-09-12T00:06:56.404Z,19.6
2022-09-12T00:09:28.928Z,19.7
2022-09-12T00:12:00.667Z,19.7
2022-09-12T00:14:33.127Z,19.7
2022-09-12T00:17:05.508Z,19.6
2022-09-12T00:19:38.026Z,19.6
2022-09-12T00:22:10.648Z,19.7
2022-09-12T00:24:42.927Z,19.6
2022-09-12T00:27:14.077Z,19.6
2022-09-12T00:29:46.221Z,19.6
2022-09-12T00:32:20.399Z,19.6
2022-09-12T00:34:52.585Z,19.6
2022-09-12T00:37:25.660Z,19.6
2022-09-12T00:39:58.432Z,19.6
2022-09-12T00:42:32.911Z,19.5
2022-09-12T00:45:07.368Z,19.5
2022-09-12T00:47:44.794Z,19.5
2022-09-12T00:50:16.098Z,19.5
2022-09-12T00:52:48.591Z,19.5
2022-09-12T00:55:20.601Z,19.6
2022-09-12T00:57:53.073Z,19.6
2022-09-12T01:00:28.098Z,19.6
2022-09-12T01:03:00.823Z,19.7
2022-09-12T01:05:33.423Z,19.7
2022-09-12T01:08:06.911Z,19.6
2022-09-12T01:10:39.604Z,19.6
2022-09-12T01:13:12.597Z,19.6
2022-09-12T01:15:46.260Z,19.6
2022-09-12T01:18:17.324Z,19.6
2022-09-12T01:20:49.515Z,19.6
2022-09-12T01:23:22.133Z,19.6
2022-09-12T01:25:54.126Z,19.6
2022-09-12T01:28:27.218Z,19.6
2022-09-12T01:30:59.553Z,19.5
2022-09-12T01:33:36.345Z,19.5
2022-09-12T01:36:10.156Z,19.4
2022-09-12T01:38:48.599Z,19.4
2022-09-12T01:41:21.074Z,19.3
2022-09-12T01:43:53.545Z,19.3
2022-09-12T01:46:28.762Z,19.3
2022-09-12T01:49:00.269Z,19.3
2022-09-12T01:51:32.789Z,19.4
2022-09-12T01:54:05.206Z,19.5
2022-09-12T01:56:38.519Z,19.4
2022-09-12T01:59:12.145Z,19.5
2022-09-12T02:01:44.451Z,19.5
2022-09-12T02:04:16.639Z,19.5
2022-09-12T02:06:48.900Z,19.4
2022-09-12T02:09:21.532Z,19.3
2022-09-12T02:11:53.747Z,19.2
2022-09-12T02:14:26.350Z,19.2
2022-09-12T02:16:58.524Z,19.2
2022-09-12T02:19:32.834Z,19.2
2022-09-12T02:22:05.211Z,19.3
2022-09-12T02:24:41.216Z,19.2
2022-09-12T02:27:12.421Z,19.1
2022-09-12T02:29:46.087Z,19.1
2022-09-12T02:32:18.326Z,19.1
2022-09-12T02:34:50.466Z,19.1
2022-09-12T02:37:23.710Z,19.1
2022-09-12T02:39:58.972Z,19.1
2022-09-12T02:42:32.819Z,19.1
2022-09-12T02:45:11.357Z,19.1
2022-09-12T02:47:42.819Z,19
2022-09-12T02:50:16.286Z,19
2022-09-12T02:52:51.294Z,19
2022-09-12T02:55:23.825Z,19
2022-09-12T02:57:55.901Z,18.9
2022-09-12T03:00:28.485Z,18.9
2022-09-12T03:03:02.403Z,18.9
2022-09-12T03:05:34.667Z,18.8
2022-09-12T03:08:06.978Z,18.9
2022-09-12T03:10:39.371Z,18.9
2022-09-12T03:13:13.018Z,18.9
2022-09-12T03:15:46.680Z,18.8
2022-09-12T03:18:19.976Z,18.9
2022-09-12T03:20:53.871Z,18.8
2022-09-12T03:23:26.391Z,18.9
2022-09-12T03:25:59.219Z,18.9
2022-09-12T03:28:31.182Z,18.8
2022-09-12T03:31:03.850Z,18.7
2022-09-12T03:33:35.995Z,18.8
2022-09-12T03:36:08.645Z,18.7
2022-09-12T03:38:41.087Z,18.7
2022-09-12T03:41:13.853Z,18.7
2022-09-12T03:43:46.277Z,18.7
2022-09-12T03:46:18.901Z,18.6
2022-09-12T03:48:51.355Z,18.7
2022-09-12T03:51:24.247Z,18.7
2022-09-12T03:53:56.383Z,18.7
2022-09-12T03:56:28.608Z,18.7
2022-09-12T03:59:03.774Z,18.6
2022-09-12T04:01:36.585Z,18.7
2022-09-12T04:04:10.536Z,18.7
2022-09-12T04:06:52.721Z,18.6
2022-09-12T04:09:24.277Z,18.7
2022-09-12T04:11:58.444Z,18.5
2022-09-12T04:14:41.464Z,18.6
2022-09-12T04:17:12.533Z,18.7
2022-09-12T04:19:45.207Z,18.6
2022-09-12T04:22:18.540Z,18.7
2022-09-12T04:24:55.027Z,18.6
2022-09-12T04:27:26.680Z,18.5
2022-09-12T04:29:58.983Z,18.6
2022-09-12T04:32:31.949Z,18.7
2022-09-12T04:35:04.416Z,18.7
2022-09-12T04:37:36.579Z,18.7
2022-09-12T04:40:09.480Z,18.6
2022-09-12T04:42:42.095Z,18.6
2022-09-12T04:45:14.848Z,18.5
2022-09-12T04:47:46.890Z,18.5
2022-09-12T04:50:19.221Z,18.5
2022-09-12T04:52:50.188Z,18.5
2022-09-12T04:55:22.549Z,18.6
2022-09-12T04:57:57.562Z,18.6
2022-09-12T05:00:29.560Z,18.7
2022-09-12T05:03:02.327Z,18.7
2022-09-12T05:05:38.632Z,18.7
2022-09-12T05:08:11.371Z,18.7
2022-09-12T05:10:45.413Z,18.7
2022-09-12T05:13:18.346Z,18.7
2022-09-12T05:15:50.618Z,18.7
2022-09-12T05:18:23.371Z,18.7
2022-09-12T05:20:56.853Z,18.7
2022-09-12T05:23:29.647Z,18.7
2022-09-12T05:26:02.607Z,18.8
2022-09-12T05:28:35.120Z,18.8
2022-09-12T05:31:09.180Z,18.9
2022-09-12T05:33:41.037Z,19
2022-09-12T05:36:19.048Z,19.1
2022-09-12T05:38:52.916Z,19.1
2022-09-12T05:41:25.733Z,19.2
2022-09-12T05:44:00.135Z,19.2
2022-09-12T05:46:34.095Z,19.2
2022-09-12T05:49:08.860Z,19.2
2022-09-12T05:51:45.092Z,19.4
2022-09-12T05:54:19.036Z,19.4
2022-09-12T05:56:50.549Z,19.4
2022-09-12T05:59:23.600Z,19.5
2022-09-12T06:01:55.840Z,19.6
2022-09-12T06:04:28.233Z,19.7
2022-09-12T06:07:00.129Z,19.7
2022-09-12T06:09:32.104Z,19.8
2022-09-12T06:12:04.603Z,20
2022-09-12T06:14:38.600Z,20.1
2022-09-12T06:17:10.389Z,20.3
2022-09-12T06:19:42.623Z,20.4
2022-09-12T06:22:16.330Z,20.4
2022-09-12T06:24:48.187Z,20.4
2022-09-12T06:27:21.873Z,20.3
2022-09-12T06:29:53.911Z,20.5
2022-09-12T06:32:25.563Z,20.5
2022-09-12T06:34:57.741Z,20.5
2022-09-12T06:37:29.691Z,20.6
2022-09-12T06:40:03.198Z,20.6
2022-09-12T06:42:37.294Z,20.5
2022-09-12T06:45:08.692Z,20.5
2022-09-12T06:47:40.473Z,20.5
2022-09-12T06:50:15.081Z,20.5
2022-09-12T06:52:48.781Z,20.5
2022-09-12T06:55:29.035Z,20.4
2022-09-12T06:58:04.824Z,20.4
2022-09-12T07:00:36.054Z,20.4
2022-09-12T07:03:08.379Z,20.4
2022-09-12T07:05:40.351Z,20.3
2022-09-12T07:08:12.076Z,20.3
2022-09-12T07:10:44.570Z,20.2
2022-09-12T07:13:15.269Z,20.3
2022-09-12T07:15:46.950Z,20.3
2022-09-12T07:18:19.127Z,20.2
2022-09-12T07:20:51.485Z,20.2
2022-09-12T07:23:23.709Z,20.2
2022-09-12T07:25:55.959Z,20.2
2022-09-12T07:28:28.153Z,20.2
2022-09-12T07:31:02.801Z,20.2
2022-09-12T07:33:35.281Z,20.3
2022-09-12T07:36:07.695Z,20.4
2022-09-12T07:38:40.193Z,20.5
2022-09-12T07:41:12.828Z,20.5
2022-09-12T07:43:45.430Z,20.5
2022-09-12T07:46:18.074Z,20.4
2022-09-12T07:48:51.622Z,20.5
2022-09-12T07:51:24.232Z,20.6
2022-09-12T07:53:56.883Z,20.7
2022-09-12T07:56:39.800Z,20.9
2022-09-12T07:59:10.346Z,20.9
2022-09-12T08:01:42.972Z,20.9
2022-09-12T08:04:15.228Z,20.9
2022-09-12T08:06:47.608Z,20.8
2022-09-12T08:09:20.118Z,20.8
2022-09-12T08:11:52.315Z,20.9
2022-09-12T08:14:24.862Z,21
2022-09-12T08:16:56.767Z,21
2022-09-12T08:19:30.124Z,21
2022-09-12T08:22:02.207Z,20.9
2022-09-12T08:24:33.983Z,21
2022-09-12T08:27:06.138Z,21.1
2022-09-12T08:29:38.792Z,21.3
2022-09-12T08:32:10.882Z,21.2
2022-09-12T08:34:44.618Z,21.3
2022-09-12T08:37:17.314Z,21.5
2022-09-12T08:39:54.219Z,21.6
2022-09-12T08:42:27.591Z,21.8
2022-09-12T08:45:00.238Z,21.8
2022-09-12T08:47:32.425Z,21.9
2022-09-12T08:50:04.671Z,21.9
2022-09-12T08:52:36.087Z,22.1
2022-09-12T08:55:09.264Z,22.2
2022-09-12T08:57:44.292Z,22.1
2022-09-12T09:00:19.854Z,22.3
2022-09-12T09:02:52.755Z,22.4
2022-09-12T09:05:24.164Z,22.6
2022-09-12T09:07:56.381Z,22.4
2022-09-12T09:10:30.809Z,22.2
2022-09-12T09:13:03.218Z,22.4
2022-09-12T09:15:35.988Z,22.6
2022-09-12T09:18:09.601Z,22.5
2022-09-12T09:20:48.219Z,22.4
2022-09-12T09:23:22.272Z,22.6
2022-09-12T09:25:56.704Z,22.9
2022-09-12T09:28:28.556Z,23
2022-09-12T09:31:04.109Z,23.1
2022-09-12T09:33:35.627Z,23
2022-09-12T09:36:07.771Z,23
2022-09-12T09:38:44.891Z,22.9
2022-09-12T09:41:16.316Z,22.8
2022-09-12T09:43:50.071Z,22.9
2022-09-12T09:46:22.488Z,23.2
2022-09-12T09:49:03.179Z,23.2
2022-09-12T09:52:00.697Z,23.3
2022-09-12T09:54:35.484Z,23.4
2022-09-12T09:57:06.313Z,23.3
2022-09-12T09:59:40.459Z,23.3
2022-09-12T10:02:17.838Z,23.2
2022-09-12T10:04:57.531Z,23.3
2022-09-12T10:07:29.834Z,23.4
2022-09-12T10:10:03.991Z,23.3
2022-09-12T10:12:36.668Z,23.3
2022-09-12T10:15:08.932Z,23.4
2022-09-12T10:17:41.538Z,23.7
2022-09-12T10:20:23.552Z,23.6
2022-09-12T10:22:54.489Z,23.5
2022-09-12T10:25:26.944Z,23.4
2022-09-12T10:27:59.124Z,23.3
2022-09-12T10:30:31.980Z,23.2
2022-09-12T10:33:08.725Z,23.2
2022-09-12T10:35:43.216Z,23.2
2022-09-12T10:38:15.530Z,23.1
2022-09-12T10:41:37.698Z,23.3
2022-09-12T10:44:09.948Z,23.6
2022-09-12T10:46:42.428Z,23.5
2022-09-12T10:49:19.351Z,23.3
2022-09-12T10:51:50.943Z,23.3
2022-09-12T10:54:24.508Z,23.1
2022-09-12T10:56:57.263Z,23.1
2022-09-12T10:59:29.758Z,23.1
2022-09-12T11:02:10.061Z,23
2022-09-12T11:04:42.675Z,23.1
2022-09-12T11:07:15.360Z,23.1
2022-09-12T11:09:49.879Z,23.1
2022-09-12T11:12:24.940Z,23.1
2022-09-12T11:14:56.393Z,23.1
2022-09-12T11:17:30.537Z,23
2022-09-12T11:20:02.832Z,23.1
2022-09-12T11:22:44.762Z,23
2022-09-12T11:25:15.544Z,23
2022-09-12T11:27:49.170Z,23
2022-09-12T11:30:22.338Z,23
2022-09-12T11:32:54.742Z,22.9
2022-09-12T11:35:27.158Z,22.9
2022-09-12T11:38:00.381Z,23
2022-09-12T11:40:33.432Z,23.2
2022-09-12T11:43:07.124Z,23.2
2022-09-12T11:45:41.306Z,23.3
2022-09-12T11:48:14.178Z,23.2
2022-09-12T11:50:47.480Z,23.2
2022-09-12T11:53:20.325Z,23.2
2022-09-12T11:55:53.072Z,23.3
2022-09-12T11:58:26.391Z,23.5
2022-09-12T12:00:58.495Z,23.6
2022-09-12T12:03:31.250Z,23.6
2022-09-12T12:06:04.222Z,23.6
2022-09-12T12:11:22.504Z,23.6
2022-09-12T12:13:55.182Z,23.7
2022-09-12T12:16:29.595Z,23.6
2022-09-12T12:19:11.167Z,23.5
2022-09-12T12:21:43.167Z,23.6
2022-09-12T12:24:16.132Z,23.9
2022-09-12T12:26:53.604Z,23.9
2022-09-12T12:29:25.690Z,24.1
2022-09-12T12:32:08.727Z,24.3
2022-09-12T12:34:39.293Z,24.2
2022-09-12T12:37:12.149Z,24.2
2022-09-12T12:39:45.587Z,24
2022-09-12T12:42:27.058Z,24.2
2022-09-12T12:45:01.501Z,24.3
2022-09-12T12:47:39.780Z,24.4
2022-09-12T12:50:10.891Z,24.4
2022-09-12T12:52:43.502Z,24.1
2022-09-12T12:55:14.442Z,24
2022-09-12T12:57:47.173Z,23.9
2022-09-12T13:00:19.227Z,23.8
2022-09-12T13:02:52.399Z,23.6
2022-09-12T13:05:24.901Z,23.7
2022-09-12T13:07:59.049Z,23.6
2022-09-12T13:10:32.066Z,23.5
2022-09-12T13:13:06.709Z,23.5
2022-09-12T13:15:44.621Z,23.4
2022-09-12T13:18:17.029Z,23.5
2022-09-12T13:20:51.678Z,23.7
2022-09-12T13:23:24.753Z,23.8
2022-09-12T13:25:57.267Z,23.8
2022-09-12T13:28:29.851Z,23.8
2022-09-12T13:31:05.439Z,23.8
2022-09-12T13:33:39.822Z,23.7
2022-09-12T13:36:12.180Z,23.7
2022-09-12T13:38:47.804Z,23.6
2022-09-12T13:41:19.832Z,23.6
2022-09-12T13:43:51.990Z,23.5
2022-09-12T13:46:25.995Z,23.5
2022-09-12T13:48:58.781Z,23.4
2022-09-12T13:51:31.897Z,23.4
2022-09-12T13:54:05.116Z,23.4
2022-09-12T13:56:39.394Z,23.4
2022-09-12T13:59:10.849Z,23.5
2022-09-12T14:01:43.490Z,23.6
2022-09-12T14:04:15.687Z,23.7
2022-09-12T14:06:47.628Z,23.7
2022-09-12T14:09:25.895Z,23.8
2022-09-12T14:11:57.327Z,23.7
2022-09-12T14:14:30.306Z,23.6
2022-09-12T14:17:04.846Z,23.6
2022-09-12T14:19:37.135Z,23.5
2022-09-12T14:22:10.156Z,23.5
2022-09-12T14:24:42.839Z,23.5
2022-09-12T14:27:15.404Z,23.4
2022-09-12T14:29:48.350Z,23.4
2022-09-12T14:32:21.114Z,23.5
2022-09-12T14:34:53.854Z,23.5
2022-09-12T14:37:26.611Z,23.4
2022-09-12T14:40:00.191Z,23.5
2022-09-12T14:42:32.577Z,23.4
2022-09-12T14:45:06.339Z,23.4
2022-09-12T14:47:39.208Z,23.5
2022-09-12T14:50:12.002Z,23.4
2022-09-12T14:52:44.351Z,23.4
2022-09-12T14:55:17.148Z,23.3
2022-09-12T14:57:50.800Z,23.3
2022-09-12T15:00:23.856Z,23.3
2022-09-12T15:02:57.361Z,23.3
2022-09-12T15:05:30.326Z,23.2
2022-09-12T15:08:04.099Z,23.1
2022-09-12T15:10:36.740Z,23
2022-09-12T15:13:09.692Z,23.1
2022-09-12T15:15:42.583Z,23.2
2022-09-12T15:18:14.843Z,23.2
2022-09-12T15:20:47.519Z,23.3
2022-09-12T15:23:20.319Z,23.3
2022-09-12T15:25:54.168Z,23.3
2022-09-12T15:28:27.280Z,23.2
2022-09-12T15:30:59.973Z,23.3
2022-09-12T15:33:32.437Z,23.4
2022-09-12T15:36:10.268Z,23.3
2022-09-12T15:38:42.087Z,23.3
2022-09-12T15:41:14.592Z,23.3
2022-09-12T15:43:47.340Z,23.2
2022-09-12T15:46:21.482Z,23.1
2022-09-12T15:48:54.051Z,23.1
2022-09-12T15:51:26.448Z,23.1
2022-09-12T15:53:59.384Z,23.1
2022-09-12T15:56:32.370Z,23.1
2022-09-12T15:59:05.488Z,23.1
2022-09-12T16:01:38.814Z,23.1
2022-09-12T16:04:10.004Z,23.1
2022-09-12T16:06:42.425Z,23.1
2022-09-12T16:09:17.435Z,23.1
2022-09-12T16:11:49.246Z,23.1
2022-09-12T16:14:21.381Z,23.2
2022-09-12T16:16:54.021Z,23
2022-09-12T16:19:26.294Z,23.1
2022-09-12T16:21:58.819Z,23
2022-09-12T16:24:31.736Z,23
2022-09-12T16:27:03.921Z,23
2022-09-12T16:29:36.414Z,22.9
2022-09-12T16:32:10.845Z,22.9
2022-09-12T16:34:44.263Z,22.8
2022-09-12T16:37:15.449Z,22.8
2022-09-12T16:39:47.889Z,22.8
2022-09-12T16:42:19.985Z,22.8
2022-09-12T16:44:52.515Z,22.7
2022-09-12T16:47:25.131Z,22.7
2022-09-12T16:49:59.410Z,22.6
2022-09-12T16:52:31.307Z,22.6
2022-09-12T16:55:03.436Z,22.5
2022-09-12T16:57:35.478Z,22.4
2022-09-12T17:00:10.462Z,22.4
2022-09-12T17:02:42.513Z,22.3
2022-09-12T17:05:15.756Z,22.3
2022-09-12T17:07:48.268Z,22.3
2022-09-12T17:10:20.898Z,22.3
2022-09-12T17:12:55.132Z,22.2
2022-09-12T17:15:27.679Z,22.1
2022-09-12T17:18:01.171Z,22
2022-09-12T17:20:35.549Z,22
2022-09-12T17:23:10.544Z,22
2022-09-12T17:25:49.770Z,22.1
2022-09-12T17:28:22.268Z,22
2022-09-12T17:30:55.800Z,21.9
2022-09-12T17:33:28.373Z,21.9
2022-09-12T17:36:02.790Z,21.9
2022-09-12T17:38:35.248Z,21.9
2022-09-12T17:41:10.409Z,21.9
2022-09-12T17:43:41.597Z,21.8
2022-09-12T17:46:15.126Z,21.8
2022-09-12T17:48:46.226Z,21.8
2022-09-12T17:51:19.948Z,21.8
2022-09-12T17:53:54.032Z,21.7
2022-09-12T17:56:28.027Z,21.7
2022-09-12T17:58:57.798Z,21.5
2022-09-12T18:01:31.631Z,21.4
2022-09-12T18:04:04.870Z,21.3
2022-09-12T18:06:38.868Z,21.3
2022-09-12T18:09:11.796Z,21.3
2022-09-12T18:11:44.806Z,21.2
2022-09-12T18:14:18.554Z,21.2
2022-09-12T18:16:53.070Z,21.1
2022-09-12T18:19:27.321Z,21.1
2022-09-12T18:21:59.318Z,21.1
2022-09-12T18:24:31.344Z,21.1
2022-09-12T18:27:05.532Z,21.1
2022-09-12T18:29:38.560Z,21.2
2022-09-12T18:32:20.168Z,21.2
2022-09-12T18:34:51.875Z,21.2
2022-09-12T18:37:24.429Z,21.2
2022-09-12T18:39:55.510Z,21.2
2022-09-12T18:42:27.533Z,21.2
2022-09-12T18:45:00.121Z,21.2
2022-09-12T18:47:33.551Z,21.1
2022-09-12T18:50:08.966Z,21.1
2022-09-12T18:52:40.144Z,21
2022-09-12T18:55:13.744Z,20.9
2022-09-12T18:57:47.464Z,20.8
2022-09-12T19:00:19.192Z,20.8
2022-09-12T19:02:51.702Z,20.8
2022-09-12T19:05:24.331Z,20.8
2022-09-12T19:07:57.210Z,20.9
2022-09-12T19:10:31.040Z,20.6
2022-09-12T19:13:03.100Z,20.6
2022-09-12T19:15:35.556Z,20.6
2022-09-12T19:18:08.381Z,20.6
2022-09-12T19:20:41.832Z,20.6
2022-09-12T19:23:13.561Z,20.7
2022-09-12T19:25:45.947Z,20.6
2022-09-12T19:28:18.377Z,20.5
2022-09-12T19:30:51.094Z,20.5
2022-09-12T19:33:24.998Z,20.5
2022-09-12T19:35:57.304Z,20.5
2022-09-12T19:38:29.579Z,20.4
2022-09-12T19:41:00.285Z,20.4
2022-09-12T19:43:33.736Z,20.3
2022-09-12T19:46:06.857Z,20.4
2022-09-12T19:48:38.471Z,20.3
2022-09-12T19:51:09.334Z,20.2
2022-09-12T19:53:42.069Z,20.2
2022-09-12T19:56:14.357Z,20.1
2022-09-12T19:58:46.590Z,20.1
2022-09-12T20:01:20.759Z,20.1
2022-09-12T20:03:55.612Z,19.9
2022-09-12T20:06:29.597Z,19.9
2022-09-12T20:09:01.879Z,19.8
2022-09-12T20:11:34.564Z,19.7
2022-09-12T20:14:10.002Z,19.7
2022-09-12T20:16:45.573Z,19.6
2022-09-12T20:19:26.518Z,19.6
2022-09-12T20:21:59.172Z,19.5
2022-09-12T20:24:31.813Z,19.5
2022-09-12T20:27:04.499Z,19.5
2022-09-12T20:29:37.755Z,19.6
2022-09-12T20:32:15.514Z,19.5
2022-09-12T20:34:55.403Z,19.5
2022-09-12T20:37:27.352Z,19.5
2022-09-12T20:40:00.390Z,19.5
2022-09-12T20:42:35.256Z,19.5
2022-09-12T20:45:10.151Z,19.4
2022-09-12T20:48:05.025Z,19.3
2022-09-12T20:50:35.863Z,19.3
2022-09-12T20:53:07.495Z,19.3
2022-09-12T20:55:40.485Z,19.2
2022-09-12T20:58:15.905Z,19.2
2022-09-12T21:00:48.690Z,18.9
2022-09-12T21:03:20.447Z,18.9
2022-09-12T21:05:52.759Z,18.8
2022-09-12T21:08:25.057Z,18.8
2022-09-12T21:10:57.700Z,18.8
2022-09-12T21:13:29.301Z,18.6
2022-09-12T21:16:01.506Z,18.6
2022-09-12T21:18:35.292Z,18.7
2022-09-12T21:21:08.736Z,18.7
2022-09-12T21:23:40.983Z,18.8
2022-09-12T21:26:14.315Z,18.7
2022-09-12T21:28:47.217Z,18.7
2022-09-12T21:31:21.013Z,18.7
2022-09-12T21:33:54.144Z,18.7
2022-09-12T21:36:35.745Z,18.7
2022-09-12T21:39:09.488Z,18.6
2022-09-12T21:41:41.637Z,18.6
2022-09-12T21:44:13.617Z,18.6
2022-09-12T21:46:46.724Z,18.6
2022-09-12T21:49:19.293Z,18.5
2022-09-12T21:51:56.268Z,18.4
2022-09-12T21:54:27.978Z,18.4
2022-09-12T21:57:01.241Z,18.5
2022-09-12T21:59:33.523Z,18.3
2022-09-12T22:02:07.234Z,18.3
2022-09-12T22:04:40.923Z,18.2
2022-09-12T22:07:20.598Z,18.3
2022-09-12T22:09:52.176Z,18.3
2022-09-12T22:12:33.261Z,18.4
2022-09-12T22:15:41.839Z,18.2
2022-09-12T22:18:13.140Z,18.3
2022-09-12T22:20:44.689Z,18.3
2022-09-12T22:23:26.216Z,18.2
2022-09-12T22:26:00.945Z,18.1
2022-09-12T22:28:33.175Z,18
2022-09-12T22:31:05.961Z,17.9
2022-09-12T22:33:38.314Z,17.9
2022-09-12T22:36:11.901Z,17.8
2022-09-12T22:38:49.563Z,17.8
2022-09-12T22:41:23.205Z,17.8
2022-09-12T22:43:57.672Z,17.7
2022-09-12T22:46:28.078Z,17.6
2022-09-12T22:49:01.905Z,17.8
2022-09-12T22:51:36.262Z,17.8
2022-09-12T22:54:08.596Z,17.7
2022-09-12T22:56:41.342Z,17.6
2022-09-12T22:59:14.658Z,17.7
2022-09-12T23:01:49.818Z,17.6
2022-09-12T23:04:20.779Z,17.7
2022-09-12T23:06:52.686Z,17.5
2022-09-12T23:09:26.010Z,17.5
2022-09-12T23:12:03.185Z,17.4
2022-09-12T23:14:35.943Z,17.4
2022-09-12T23:17:08.780Z,17.4
2022-09-12T23:19:41.060Z,17.4
2022-09-12T23:22:13.687Z,17.4
2022-09-12T23:24:45.932Z,17.4
2022-09-12T23:27:21.198Z,17.4
2022-09-12T23:29:53.603Z,17.3
2022-09-12T23:32:26.943Z,17.3
2022-09-12T23:34:59.683Z,17.4
2022-09-12T23:37:30.540Z,17.3
2022-09-12T23:40:04.453Z,17.3
2022-09-12T23:42:36.970Z,17.3
2022-09-12T23:45:13.730Z,17.3
2022-09-12T23:47:48.980Z,17.3
2022-09-12T23:50:20.592Z,17.2
2022-09-12T23:52:53.672Z,17.2
2022-09-12T23:55:27.807Z,17.2
2022-09-12T23:58:11.761Z,17.2
